sensor_id;sensor_type;location;lat;lon;timestamp;pressure;altitude;pressure_sealevel;temperature;humidity
18396;BME280;76377;45.194;5.734;2024-03-23T00:54:09;98968.81;;;14.33;59.89
18396;BME280;76377;45.194;5.734;2024-03-23T00:56:35;98965.63;;;14.31;59.93
18396;BME280;76377;45.194;5.734;2024-03-23T00:59:02;98968.78;;;14.29;59.59
18396;BME280;76377;45.194;5.734;2024-03-23T01:01:28;98969.22;;;14.35;59.32
18396;BME280;76377;45.194;5.734;2024-03-23T01:03:55;98962.47;;;14.39;59.43
18396;BME280;76377;45.194;5.734;2024-03-23T01:06:21;98966.41;;;14.31;59.33
18396;BME280;76377;45.194;5.734;2024-03-23T01:08:48;98979.91;;;14.26;60.05
18396;BME280;76377;45.194;5.734;2024-03-23T01:11:15;98971.56;;;14.22;60.10
18396;BME280;76377;45.194;5.734;2024-03-23T01:13:43;98971.94;;;14.17;60.23
18396;BME280;76377;45.194;5.734;2024-03-23T01:16:09;98973.53;;;14.21;60.42
18396;BME280;76377;45.194;5.734;2024-03-23T01:18:36;98970.75;;;14.18;60.32
18396;BME280;76377;45.194;5.734;2024-03-23T01:21:02;98975.13;;;14.19;60.30
18396;BME280;76377;45.194;5.734;2024-03-23T01:23:29;98972.72;;;14.21;60.31
18396;BME280;76377;45.194;5.734;2024-03-23T01:25:55;98967.94;;;14.11;60.82
18396;BME280;76377;45.194;5.734;2024-03-23T01:28:24;98971.13;;;14.13;60.41
18396;BME280;76377;45.194;5.734;2024-03-23T01:30:50;98969.13;;;14.10;60.95
18396;BME280;76377;45.194;5.734;2024-03-23T01:33:17;98960.78;;;14.10;60.66
18396;BME280;76377;45.194;5.734;2024-03-23T01:35:43;98971.53;;;14.15;60.55
18396;BME280;76377;45.194;5.734;2024-03-23T01:38:10;98971.16;;;14.27;59.08
18396;BME280;76377;45.194;5.734;2024-03-23T01:40:36;98970.47;;;14.51;55.86
18396;BME280;76377;45.194;5.734;2024-03-23T01:43:04;98960.94;;;14.45;54.36
18396;BME280;76377;45.194;5.734;2024-03-23T01:45:32;98968.47;;;14.48;54.22
18396;BME280;76377;45.194;5.734;2024-03-23T01:48:00;98966.97;;;14.62;53.24
18396;BME280;76377;45.194;5.734;2024-03-23T01:50:27;98972.13;;;14.67;53.07
18396;BME280;76377;45.194;5.734;2024-03-23T01:52:54;98971.72;;;14.61;52.87
18396;BME280;76377;45.194;5.734;2024-03-23T01:55:20;98972.13;;;14.67;52.52
18396;BME280;76377;45.194;5.734;2024-03-23T01:57:47;98967.31;;;14.57;53.17
18396;BME280;76377;45.194;5.734;2024-03-23T02:00:14;98961.41;;;14.69;52.53
18396;BME280;76377;45.194;5.734;2024-03-23T02:02:44;98970.47;;;14.51;53.18
18396;BME280;76377;45.194;5.734;2024-03-23T02:05:11;98972.06;;;14.52;53.55
18396;BME280;76377;45.194;5.734;2024-03-23T02:07:39;98968.88;;;14.43;53.43
18396;BME280;76377;45.194;5.734;2024-03-23T02:10:06;98963.31;;;14.43;53.67
18396;BME280;76377;45.194;5.734;2024-03-23T02:12:33;98956.91;;;14.39;53.58
18396;BME280;76377;45.194;5.734;2024-03-23T02:14:59;98951.00;;;14.44;54.46
18396;BME280;76377;45.194;5.734;2024-03-23T02:17:27;98956.16;;;14.42;55.16
18396;BME280;76377;45.194;5.734;2024-03-23T02:19:54;98964.03;;;14.33;55.35
18396;BME280;76377;45.194;5.734;2024-03-23T02:22:22;98958.47;;;14.30;55.46
18396;BME280;76377;45.194;5.734;2024-03-23T02:24:49;98965.63;;;14.31;55.38
18396;BME280;76377;45.194;5.734;2024-03-23T02:27:16;98957.69;;;14.33;55.13
18396;BME280;76377;45.194;5.734;2024-03-23T02:29:42;98955.31;;;14.42;54.61
18396;BME280;76377;45.194;5.734;2024-03-23T02:32:09;98960.16;;;14.52;54.60
18396;BME280;76377;45.194;5.734;2024-03-23T02:34:35;98964.91;;;14.48;54.82
18396;BME280;76377;45.194;5.734;2024-03-23T02:37:10;98968.06;;;14.43;55.01
18396;BME280;76377;45.194;5.734;2024-03-23T02:39:36;98969.66;;;14.44;55.28
18396;BME280;76377;45.194;5.734;2024-03-23T02:42:05;98967.75;;;14.59;54.75
18396;BME280;76377;45.194;5.734;2024-03-23T02:44:31;98964.09;;;14.47;55.19
18396;BME280;76377;45.194;5.734;2024-03-23T02:46:58;98966.09;;;14.50;55.28
18396;BME280;76377;45.194;5.734;2024-03-23T02:49:25;98955.44;;;14.60;54.79
18396;BME280;76377;45.194;5.734;2024-03-23T02:51:52;98960.94;;;14.52;55.26
18396;BME280;76377;45.194;5.734;2024-03-23T02:54:18;98963.31;;;14.47;55.42
18396;BME280;76377;45.194;5.734;2024-03-23T02:56:45;98954.56;;;14.48;55.36
18396;BME280;76377;45.194;5.734;2024-03-23T02:59:13;98959.34;;;14.48;55.30
18396;BME280;76377;45.194;5.734;2024-03-23T03:01:40;98963.31;;;14.47;55.70
18396;BME280;76377;45.194;5.734;2024-03-23T03:04:06;98964.97;;;14.62;54.54
18396;BME280;76377;45.194;5.734;2024-03-23T03:06:33;98972.88;;;14.57;54.71
18396;BME280;76377;45.194;5.734;2024-03-23T03:08:59;98966.53;;;14.56;54.56
18396;BME280;76377;45.194;5.734;2024-03-23T03:11:26;98964.13;;;14.55;54.99
18396;BME280;76377;45.194;5.734;2024-03-23T03:13:52;98968.09;;;14.53;54.57
18396;BME280;76377;45.194;5.734;2024-03-23T03:16:21;98976.03;;;14.44;55.26
18396;BME280;76377;45.194;5.734;2024-03-23T03:18:47;98969.28;;;14.45;55.17
18396;BME280;76377;45.194;5.734;2024-03-23T03:21:14;98970.41;;;14.41;55.20
18396;BME280;76377;45.194;5.734;2024-03-23T03:23:42;98970.88;;;14.46;55.10
18396;BME280;76377;45.194;5.734;2024-03-23T03:26:10;98966.44;;;14.38;54.95
18396;BME280;76377;45.194;5.734;2024-03-23T03:28:36;98959.28;;;14.37;54.95
18396;BME280;76377;45.194;5.734;2024-03-23T03:31:03;98965.66;;;14.38;55.19
18396;BME280;76377;45.194;5.734;2024-03-23T03:33:31;98964.50;;;14.42;54.80
18396;BME280;76377;45.194;5.734;2024-03-23T03:35:58;98965.25;;;14.39;54.72
18396;BME280;76377;45.194;5.734;2024-03-23T03:38:24;98965.72;;;14.56;54.42
18396;BME280;76377;45.194;5.734;2024-03-23T03:40:51;98961.72;;;14.46;55.11
18396;BME280;76377;45.194;5.734;2024-03-23T03:43:18;98952.94;;;14.40;54.70
18396;BME280;76377;45.194;5.734;2024-03-23T03:45:51;98956.50;;;14.41;53.56
18396;BME280;76377;45.194;5.734;2024-03-23T03:48:17;98957.69;;;14.36;54.04
18396;BME280;76377;45.194;5.734;2024-03-23T03:50:46;98958.47;;;14.33;55.21
18396;BME280;76377;45.194;5.734;2024-03-23T03:53:12;98944.97;;;14.32;54.99
18396;BME280;76377;45.194;5.734;2024-03-23T03:55:39;98947.34;;;14.33;54.82
18396;BME280;76377;45.194;5.734;2024-03-23T03:58:06;98935.03;;;14.38;54.31
18396;BME280;76377;45.194;5.734;2024-03-23T04:00:33;98937.03;;;14.37;54.63
18396;BME280;76377;45.194;5.734;2024-03-23T04:02:59;98918.75;;;14.40;54.58
18396;BME280;76377;45.194;5.734;2024-03-23T04:05:26;98922.78;;;14.42;54.59
18396;BME280;76377;45.194;5.734;2024-03-23T04:07:54;98918.75;;;14.40;54.05
18396;BME280;76377;45.194;5.734;2024-03-23T04:10:21;98910.03;;;14.41;53.59
18396;BME280;76377;45.194;5.734;2024-03-23T04:12:47;98906.44;;;14.41;53.76
18396;BME280;76377;45.194;5.734;2024-03-23T04:15:15;98900.53;;;14.42;53.31
18396;BME280;76377;45.194;5.734;2024-03-23T04:17:41;98898.94;;;14.48;53.21
18396;BME280;76377;45.194;5.734;2024-03-23T04:20:09;98896.56;;;14.47;53.54
18396;BME280;76377;45.194;5.734;2024-03-23T04:22:37;98886.97;;;14.41;54.20
18396;BME280;76377;45.194;5.734;2024-03-23T04:25:06;98898.53;;;14.46;53.89
18396;BME280;76377;45.194;5.734;2024-03-23T04:27:32;98892.59;;;14.51;54.29
18396;BME280;76377;45.194;5.734;2024-03-23T04:29:59;98898.16;;;14.48;54.40
18396;BME280;76377;45.194;5.734;2024-03-23T04:32:26;98887.41;;;14.46;54.47
18396;BME280;76377;45.194;5.734;2024-03-23T04:34:54;98881.44;;;14.44;54.39
18396;BME280;76377;45.194;5.734;2024-03-23T04:37:20;98869.53;;;14.55;54.43
18396;BME280;76377;45.194;5.734;2024-03-23T04:39:47;98877.09;;;14.43;55.35
18396;BME280;76377;45.194;5.734;2024-03-23T04:42:16;98884.25;;;14.51;55.92
18396;BME280;76377;45.194;5.734;2024-03-23T04:44:42;98891.78;;;14.47;56.70
18396;BME280;76377;45.194;5.734;2024-03-23T04:47:10;98879.41;;;14.34;59.33
18396;BME280;76377;45.194;5.734;2024-03-23T04:49:38;98870.66;;;14.25;61.53
18396;BME280;76377;45.194;5.734;2024-03-23T04:52:05;98876.63;;;14.20;62.17
18396;BME280;76377;45.194;5.734;2024-03-23T04:54:32;98882.19;;;14.27;63.42
18396;BME280;76377;45.194;5.734;2024-03-23T04:56:59;98886.13;;;14.15;64.51
18396;BME280;76377;45.194;5.734;2024-03-23T04:59:27;98888.06;;;14.04;66.15
18396;BME280;76377;45.194;5.734;2024-03-23T05:01:53;98890.41;;;13.92;66.95
18396;BME280;76377;45.194;5.734;2024-03-23T05:04:20;98875.28;;;13.89;67.49
18396;BME280;76377;45.194;5.734;2024-03-23T05:06:46;98895.94;;;13.84;67.70
18396;BME280;76377;45.194;5.734;2024-03-23T05:09:13;98912.63;;;13.88;67.89
18396;BME280;76377;45.194;5.734;2024-03-23T05:11:39;98891.56;;;13.87;67.79
18396;BME280;76377;45.194;5.734;2024-03-23T05:14:07;98882.78;;;13.74;68.10
18396;BME280;76377;45.194;5.734;2024-03-23T05:16:35;98907.38;;;13.69;68.30
18396;BME280;76377;45.194;5.734;2024-03-23T05:19:01;98925.66;;;13.73;69.48
18396;BME280;76377;45.194;5.734;2024-03-23T05:21:28;98923.25;;;13.72;70.56
18396;BME280;76377;45.194;5.734;2024-03-23T05:23:55;98920.88;;;13.74;69.67
18396;BME280;76377;45.194;5.734;2024-03-23T05:26:22;98934.59;;;13.49;71.75
18396;BME280;76377;45.194;5.734;2024-03-23T05:28:49;98942.09;;;13.41;72.74
18396;BME280;76377;45.194;5.734;2024-03-23T05:31:23;98946.03;;;13.37;73.75
18396;BME280;76377;45.194;5.734;2024-03-23T05:33:51;98942.09;;;13.41;73.54
18396;BME280;76377;45.194;5.734;2024-03-23T05:36:18;98921.50;;;13.46;73.22
18396;BME280;76377;45.194;5.734;2024-03-23T05:38:45;98922.69;;;13.45;72.91
18396;BME280;76377;45.194;5.734;2024-03-23T05:41:11;98937.38;;;13.45;73.04
18396;BME280;76377;45.194;5.734;2024-03-23T05:43:38;98931.09;;;13.55;73.22
18396;BME280;76377;45.194;5.734;2024-03-23T05:46:04;98931.13;;;13.59;74.06
18396;BME280;76377;45.194;5.734;2024-03-23T05:48:32;98933.50;;;13.57;74.40
18396;BME280;76377;45.194;5.734;2024-03-23T05:50:59;98920.06;;;13.66;74.42
18396;BME280;76377;45.194;5.734;2024-03-23T05:53:26;98916.88;;;13.64;74.66
18396;BME280;76377;45.194;5.734;2024-03-23T05:56:00;98929.91;;;13.53;75.54
18396;BME280;76377;45.194;5.734;2024-03-23T05:58:29;98932.59;;;13.46;75.87
18396;BME280;76377;45.194;5.734;2024-03-23T06:00:57;98931.75;;;13.38;76.70
18396;BME280;76377;45.194;5.734;2024-03-23T06:03:25;98931.00;;;13.45;77.07
18396;BME280;76377;45.194;5.734;2024-03-23T06:05:52;98930.31;;;13.55;77.43
18396;BME280;76377;45.194;5.734;2024-03-23T06:08:20;98935.78;;;13.48;77.84
18396;BME280;76377;45.194;5.734;2024-03-23T06:10:46;98946.06;;;13.44;78.18
18396;BME280;76377;45.194;5.734;2024-03-23T06:13:13;98963.50;;;13.41;79.32
18396;BME280;76377;45.194;5.734;2024-03-23T06:15:40;98968.78;;;13.53;77.27
18396;BME280;76377;45.194;5.734;2024-03-23T06:18:07;98963.66;;;13.58;76.51
18396;BME280;76377;45.194;5.734;2024-03-23T06:20:33;98958.13;;;13.62;76.63
18396;BME280;76377;45.194;5.734;2024-03-23T06:23:01;98962.94;;;13.69;75.24
18396;BME280;76377;45.194;5.734;2024-03-23T06:25:28;98987.59;;;13.77;74.58
18396;BME280;76377;45.194;5.734;2024-03-23T06:27:56;98982.13;;;13.99;73.26
18396;BME280;76377;45.194;5.734;2024-03-23T06:30:23;99002.09;;;14.15;72.98
18396;BME280;76377;45.194;5.734;2024-03-23T06:32:52;98979.31;;;14.82;66.35
18396;BME280;76377;45.194;5.734;2024-03-23T06:35:18;98991.72;;;15.17;63.83
18396;BME280;76377;45.194;5.734;2024-03-23T06:37:46;98980.97;;;15.68;60.97
18396;BME280;76377;45.194;5.734;2024-03-23T06:40:12;98986.84;;;16.09;59.37
18396;BME280;76377;45.194;5.734;2024-03-23T06:42:40;98992.81;;;16.19;59.78
18396;BME280;76377;45.194;5.734;2024-03-23T06:45:07;98995.59;;;16.22;58.89
18396;BME280;76377;45.194;5.734;2024-03-23T06:47:34;98989.97;;;17.10;56.94
18396;BME280;76377;45.194;5.734;2024-03-23T06:50:01;98996.13;;;19.16;51.02
18396;BME280;76377;45.194;5.734;2024-03-23T06:52:29;99018.63;;;21.45;45.08
18396;BME280;76377;45.194;5.734;2024-03-23T06:54:55;99025.09;;;22.64;41.96
18396;BME280;76377;45.194;5.734;2024-03-23T06:57:22;99033.91;;;23.46;40.49
18396;BME280;76377;45.194;5.734;2024-03-23T06:59:50;99039.06;;;24.33;38.84
18396;BME280;76377;45.194;5.734;2024-03-23T07:02:17;99060.19;;;23.30;40.35
18396;BME280;76377;45.194;5.734;2024-03-23T07:04:43;99055.16;;;24.11;38.86
18396;BME280;76377;45.194;5.734;2024-03-23T07:07:10;99072.00;;;24.93;37.21
18396;BME280;76377;45.194;5.734;2024-03-23T07:09:37;99070.72;;;24.28;38.50
18396;BME280;76377;45.194;5.734;2024-03-23T07:12:05;99084.50;;;23.66;39.88
18396;BME280;76377;45.194;5.734;2024-03-23T07:14:31;99107.41;;;21.78;43.58
18396;BME280;76377;45.194;5.734;2024-03-23T07:17:00;99111.63;;;20.11;47.47
18396;BME280;76377;45.194;5.734;2024-03-23T07:19:26;99108.53;;;20.26;46.57
18396;BME280;76377;45.194;5.734;2024-03-23T07:21:54;99144.28;;;19.75;47.71
18396;BME280;76377;45.194;5.734;2024-03-23T07:24:20;99159.22;;;18.28;49.51
18396;BME280;76377;45.194;5.734;2024-03-23T07:26:47;99136.47;;;17.75;50.75
18396;BME280;76377;45.194;5.734;2024-03-23T07:29:13;99151.06;;;17.34;50.95
18396;BME280;76377;45.194;5.734;2024-03-23T07:31:40;99178.28;;;17.16;50.51
18396;BME280;76377;45.194;5.734;2024-03-23T07:34:08;99171.66;;;16.81;50.53
18396;BME280;76377;45.194;5.734;2024-03-23T07:36:35;99162.47;;;16.84;50.34
18396;BME280;76377;45.194;5.734;2024-03-23T07:39:01;99156.91;;;16.77;49.29
18396;BME280;76377;45.194;5.734;2024-03-23T07:41:29;99171.28;;;16.44;49.54
18396;BME280;76377;45.194;5.734;2024-03-23T07:43:56;99180.06;;;16.46;49.37
18396;BME280;76377;45.194;5.734;2024-03-23T07:46:23;99192.84;;;16.29;49.67
18396;BME280;76377;45.194;5.734;2024-03-23T07:48:50;99187.66;;;16.20;49.44
18396;BME280;76377;45.194;5.734;2024-03-23T07:51:21;99177.28;;;16.10;49.53
18396;BME280;76377;45.194;5.734;2024-03-23T07:53:47;99180.06;;;16.03;49.36
18396;BME280;76377;45.194;5.734;2024-03-23T07:56:16;99189.25;;;16.14;49.01
18396;BME280;76377;45.194;5.734;2024-03-23T07:58:43;99183.25;;;16.05;49.47
18396;BME280;76377;45.194;5.734;2024-03-23T08:01:12;99189.63;;;15.95;49.20
18396;BME280;76377;45.194;5.734;2024-03-23T08:03:41;99199.19;;;16.08;49.04
18396;BME280;76377;45.194;5.734;2024-03-23T08:06:09;99196.00;;;15.99;49.25
18396;BME280;76377;45.194;5.734;2024-03-23T08:08:36;99198.41;;;15.86;49.62
18396;BME280;76377;45.194;5.734;2024-03-23T08:11:04;99197.19;;;15.91;49.80
18396;BME280;76377;45.194;5.734;2024-03-23T08:13:30;99199.97;;;15.87;50.03
18396;BME280;76377;45.194;5.734;2024-03-23T08:15:57;99214.31;;;15.93;50.05
18396;BME280;76377;45.194;5.734;2024-03-23T08:18:24;99208.75;;;15.89;49.66
18396;BME280;76377;45.194;5.734;2024-03-23T08:20:57;99199.97;;;15.76;49.71
18396;BME280;76377;45.194;5.734;2024-03-23T08:23:24;99220.66;;;15.65;50.68
18396;BME280;76377;45.194;5.734;2024-03-23T08:25:57;99223.06;;;15.73;50.66
18396;BME280;76377;45.194;5.734;2024-03-23T08:28:23;99239.38;;;15.71;50.46
18396;BME280;76377;45.194;5.734;2024-03-23T08:30:51;99251.72;;;15.67;50.78
18396;BME280;76377;45.194;5.734;2024-03-23T08:33:17;99264.91;;;15.84;50.53
18396;BME280;76377;45.194;5.734;2024-03-23T08:35:53;99268.50;;;15.99;50.29
18396;BME280;76377;45.194;5.734;2024-03-23T08:38:20;99259.75;;;16.07;50.28
18396;BME280;76377;45.194;5.734;2024-03-23T08:40:47;99277.31;;;16.15;52.12
18396;BME280;76377;45.194;5.734;2024-03-23T08:43:15;99280.91;;;16.16;52.23
18396;BME280;76377;45.194;5.734;2024-03-23T08:45:42;99276.94;;;16.41;53.09
18396;BME280;76377;45.194;5.734;2024-03-23T08:48:08;99261.06;;;19.92;44.82
18396;BME280;76377;45.194;5.734;2024-03-23T08:50:35;99277.84;;;22.67;38.57
18396;BME280;76377;45.194;5.734;2024-03-23T08:53:01;99287.88;;;23.75;35.65
18396;BME280;76377;45.194;5.734;2024-03-23T08:55:28;99284.13;;;24.45;34.09
18396;BME280;76377;45.194;5.734;2024-03-23T08:57:54;99286.28;;;25.70;31.28
18396;BME280;76377;45.194;5.734;2024-03-23T09:00:23;99285.31;;;24.82;31.96
18396;BME280;76377;45.194;5.734;2024-03-23T09:02:49;99301.72;;;25.00;31.97
18396;BME280;76377;45.194;5.734;2024-03-23T09:05:17;99282.31;;;24.51;32.10
18396;BME280;76377;45.194;5.734;2024-03-23T09:07:43;99295.53;;;24.67;31.82
18396;BME280;76377;45.194;5.734;2024-03-23T09:10:10;99310.22;;;24.75;31.00
18396;BME280;76377;45.194;5.734;2024-03-23T09:12:36;99311.72;;;24.67;31.29
18396;BME280;76377;45.194;5.734;2024-03-23T09:15:03;99322.75;;;23.69;32.73
18396;BME280;76377;45.194;5.734;2024-03-23T09:17:33;99313.09;;;22.43;34.31
18396;BME280;76377;45.194;5.734;2024-03-23T09:20:00;99347.72;;;22.24;34.87
18396;BME280;76377;45.194;5.734;2024-03-23T09:22:26;99340.59;;;21.99;35.27
18396;BME280;76377;45.194;5.734;2024-03-23T09:24:53;99317.91;;;20.27;38.55
18396;BME280;76377;45.194;5.734;2024-03-23T09:27:19;99326.34;;;19.28;39.87
18396;BME280;76377;45.194;5.734;2024-03-23T09:29:46;99335.81;;;19.41;40.03
18396;BME280;76377;45.194;5.734;2024-03-23T09:32:12;99350.13;;;18.57;41.39
18396;BME280;76377;45.194;5.734;2024-03-23T09:34:41;99353.81;;;18.47;41.24
18396;BME280;76377;45.194;5.734;2024-03-23T09:37:07;99323.50;;;17.44;42.46
18396;BME280;76377;45.194;5.734;2024-03-23T09:39:34;99334.75;;;17.23;42.69
18396;BME280;76377;45.194;5.734;2024-03-23T09:42:00;99339.50;;;16.19;44.70
18396;BME280;76377;45.194;5.734;2024-03-23T09:44:27;99350.69;;;16.44;44.45
18396;BME280;76377;45.194;5.734;2024-03-23T09:46:55;99364.25;;;16.42;44.52
18396;BME280;76377;45.194;5.734;2024-03-23T09:49:22;99367.50;;;16.69;43.95
18396;BME280;76377;45.194;5.734;2024-03-23T09:51:50;99365.81;;;17.53;41.63
18396;BME280;76377;45.194;5.734;2024-03-23T09:54:18;99367.44;;;17.47;41.51
18396;BME280;76377;45.194;5.734;2024-03-23T09:56:44;99374.97;;;17.64;40.70
18396;BME280;76377;45.194;5.734;2024-03-23T09:59:11;99360.53;;;17.87;40.28
18396;BME280;76377;45.194;5.734;2024-03-23T10:01:37;99368.59;;;17.67;40.42
18396;BME280;76377;45.194;5.734;2024-03-23T10:04:04;99381.00;;;17.49;40.54
18396;BME280;76377;45.194;5.734;2024-03-23T10:06:31;99372.22;;;16.58;42.39
18396;BME280;76377;45.194;5.734;2024-03-23T10:08:59;99380.19;;;16.38;43.03
18396;BME280;76377;45.194;5.734;2024-03-23T10:11:25;99359.53;;;17.17;41.45
18396;BME280;76377;45.194;5.734;2024-03-23T10:13:55;99366.59;;;17.57;39.76
18396;BME280;76377;45.194;5.734;2024-03-23T10:16:23;99364.56;;;17.79;39.28
18396;BME280;76377;45.194;5.734;2024-03-23T10:18:52;99369.03;;;17.48;39.38
18396;BME280;76377;45.194;5.734;2024-03-23T10:21:18;99345.00;;;17.69;39.03
18396;BME280;76377;45.194;5.734;2024-03-23T10:23:45;99370.97;;;17.65;38.79
18396;BME280;76377;45.194;5.734;2024-03-23T10:26:19;99369.38;;;17.75;38.27
18396;BME280;76377;45.194;5.734;2024-03-23T10:28:54;99343.53;;;17.07;39.16
18396;BME280;76377;45.194;5.734;2024-03-23T10:31:23;99369.78;;;16.17;40.49
18396;BME280;76377;45.194;5.734;2024-03-23T10:33:51;99357.50;;;15.49;41.56
18396;BME280;76377;45.194;5.734;2024-03-23T10:36:20;99362.22;;;15.41;41.78
18396;BME280;76377;45.194;5.734;2024-03-23T10:38:47;99384.19;;;15.50;41.54
18396;BME280;76377;45.194;5.734;2024-03-23T10:41:17;99362.06;;;15.78;40.51
18396;BME280;76377;45.194;5.734;2024-03-23T10:43:46;99364.13;;;15.96;40.32
18396;BME280;76377;45.194;5.734;2024-03-23T10:46:12;99374.59;;;16.31;39.69
18396;BME280;76377;45.194;5.734;2024-03-23T10:48:39;99352.59;;;16.08;38.75
18396;BME280;76377;45.194;5.734;2024-03-23T10:51:07;99368.63;;;16.50;37.63
18396;BME280;76377;45.194;5.734;2024-03-23T10:53:35;99333.94;;;16.26;37.65
18396;BME280;76377;45.194;5.734;2024-03-23T10:56:04;99357.84;;;16.31;37.56
18396;BME280;76377;45.194;5.734;2024-03-23T10:58:37;99365.03;;;16.50;37.45
18396;BME280;76377;45.194;5.734;2024-03-23T11:01:04;99364.22;;;16.31;37.41
18396;BME280;76377;45.194;5.734;2024-03-23T11:03:35;99359.06;;;16.51;37.02
18396;BME280;76377;45.194;5.734;2024-03-23T11:06:03;99335.13;;;16.29;36.86
18396;BME280;76377;45.194;5.734;2024-03-23T11:08:34;99388.84;;;16.01;38.13
18396;BME280;76377;45.194;5.734;2024-03-23T11:11:17;99353.47;;;16.26;37.11
18396;BME280;76377;45.194;5.734;2024-03-23T11:13:47;99373.78;;;16.23;37.54
18396;BME280;76377;45.194;5.734;2024-03-23T11:16:22;99347.47;;;16.17;37.44
18396;BME280;76377;45.194;5.734;2024-03-23T11:18:50;99370.13;;;16.08;38.24
18396;BME280;76377;45.194;5.734;2024-03-23T11:24:16;99322.59;;;15.69;38.15
18396;BME280;76377;45.194;5.734;2024-03-23T11:26:42;99332.59;;;15.77;38.39
18396;BME280;76377;45.194;5.734;2024-03-23T11:29:11;99359.72;;;15.88;38.74
18396;BME280;76377;45.194;5.734;2024-03-23T11:31:37;99364.53;;;16.05;37.39
18396;BME280;76377;45.194;5.734;2024-03-23T11:34:05;99342.59;;;15.93;37.44
18396;BME280;76377;45.194;5.734;2024-03-23T11:36:32;99351.56;;;15.54;38.00
18396;BME280;76377;45.194;5.734;2024-03-23T11:39:11;99348.47;;;15.66;37.99
18396;BME280;76377;45.194;5.734;2024-03-23T11:41:48;99358.84;;;15.73;37.42
18396;BME280;76377;45.194;5.734;2024-03-23T11:44:17;99357.34;;;15.93;37.15
18396;BME280;76377;45.194;5.734;2024-03-23T11:46:44;99342.69;;;16.25;36.56
18396;BME280;76377;45.194;5.734;2024-03-23T11:49:22;99329.84;;;15.92;36.29
18396;BME280;76377;45.194;5.734;2024-03-23T11:51:48;99312.81;;;16.32;35.68
18396;BME280;76377;45.194;5.734;2024-03-23T11:54:15;99317.94;;;16.09;36.14
18396;BME280;76377;45.194;5.734;2024-03-23T11:56:54;99308.28;;;15.71;36.66
18396;BME280;76377;45.194;5.734;2024-03-23T11:59:33;99300.78;;;15.96;35.92
18396;BME280;76377;45.194;5.734;2024-03-23T12:01:59;99305.97;;;16.05;34.71
18396;BME280;76377;45.194;5.734;2024-03-23T12:04:27;99298.06;;;16.21;34.77
18396;BME280;76377;45.194;5.734;2024-03-23T12:07:09;99284.50;;;16.37;34.92
18396;BME280;76377;45.194;5.734;2024-03-23T12:09:36;99290.09;;;16.23;34.73
18396;BME280;76377;45.194;5.734;2024-03-23T12:12:07;99288.50;;;16.29;34.38
18396;BME280;76377;45.194;5.734;2024-03-23T12:14:36;99261.78;;;16.18;34.55
18396;BME280;76377;45.194;5.734;2024-03-23T12:17:11;99260.59;;;16.15;35.07
18396;BME280;76377;45.194;5.734;2024-03-23T12:19:39;99255.41;;;16.31;34.17
18396;BME280;76377;45.194;5.734;2024-03-23T12:22:07;99259.75;;;16.00;34.15
18396;BME280;76377;45.194;5.734;2024-03-23T12:24:34;99259.75;;;16.11;33.74
18396;BME280;76377;45.194;5.734;2024-03-23T12:27:02;99259.41;;;16.30;33.23
18396;BME280;76377;45.194;5.734;2024-03-23T12:29:29;99258.19;;;16.17;33.71
18396;BME280;76377;45.194;5.734;2024-03-23T12:31:59;99255.78;;;16.12;33.85
18396;BME280;76377;45.194;5.734;2024-03-23T12:34:25;99265.34;;;16.11;34.04
18396;BME280;76377;45.194;5.734;2024-03-23T12:36:53;99262.94;;;15.92;34.22
18396;BME280;76377;45.194;5.734;2024-03-23T12:39:19;99264.47;;;15.71;34.12
18396;BME280;76377;45.194;5.734;2024-03-23T12:41:47;99257.97;;;15.46;34.27
18396;BME280;76377;45.194;5.734;2024-03-23T12:44:13;99247.75;;;15.68;34.20
18396;BME280;76377;45.194;5.734;2024-03-23T12:46:40;99249.38;;;15.80;34.09
18396;BME280;76377;45.194;5.734;2024-03-23T12:49:08;99233.81;;;15.78;34.45
18396;BME280;76377;45.194;5.734;2024-03-23T12:51:35;99236.22;;;15.76;33.62
18396;BME280;76377;45.194;5.734;2024-03-23T12:54:02;99247.78;;;15.82;33.44
18396;BME280;76377;45.194;5.734;2024-03-23T12:56:29;99250.97;;;15.81;33.21
18396;BME280;76377;45.194;5.734;2024-03-23T12:58:56;99227.06;;;15.87;32.88
18396;BME280;76377;45.194;5.734;2024-03-23T13:01:23;99205.16;;;15.89;32.78
18396;BME280;76377;45.194;5.734;2024-03-23T13:03:50;99235.03;;;15.99;33.84
18396;BME280;76377;45.194;5.734;2024-03-23T13:06:18;99231.06;;;15.86;33.80
18396;BME280;76377;45.194;5.734;2024-03-23T13:08:45;99219.09;;;15.96;33.57
18396;BME280;76377;45.194;5.734;2024-03-23T13:11:12;99218.28;;;15.74;33.44
18396;BME280;76377;45.194;5.734;2024-03-23T13:13:39;99219.91;;;15.82;33.12
18396;BME280;76377;45.194;5.734;2024-03-23T13:16:07;99217.50;;;15.81;32.86
18396;BME280;76377;45.194;5.734;2024-03-23T13:18:34;99200.00;;;15.98;31.78
18396;BME280;76377;45.194;5.734;2024-03-23T13:21:01;99201.97;;;16.01;31.40
18396;BME280;76377;45.194;5.734;2024-03-23T13:23:29;99190.03;;;16.11;31.98
18396;BME280;76377;45.194;5.734;2024-03-23T13:25:57;99200.00;;;16.23;32.29
18396;BME280;76377;45.194;5.734;2024-03-23T13:28:23;99190.06;;;16.15;32.53
18396;BME280;76377;45.194;5.734;2024-03-23T13:30:51;99194.41;;;15.94;32.39
18396;BME280;76377;45.194;5.734;2024-03-23T13:33:18;99196.81;;;15.89;32.68
18396;BME280;76377;45.194;5.734;2024-03-23T13:35:51;99195.22;;;15.95;31.39
18396;BME280;76377;45.194;5.734;2024-03-23T13:38:19;99188.72;;;15.52;31.68
18396;BME280;76377;45.194;5.734;2024-03-23T13:40:53;99178.38;;;15.52;32.50
18396;BME280;76377;45.194;5.734;2024-03-23T13:43:22;99175.66;;;15.63;32.26
18396;BME280;76377;45.194;5.734;2024-03-23T13:45:50;99170.41;;;15.54;32.53
18396;BME280;76377;45.194;5.734;2024-03-23T13:48:19;99164.53;;;15.73;31.90
18396;BME280;76377;45.194;5.734;2024-03-23T13:50:45;99160.16;;;15.90;31.20
18396;BME280;76377;45.194;5.734;2024-03-23T13:53:14;99156.56;;;15.97;31.25
18396;BME280;76377;45.194;5.734;2024-03-23T13:55:46;99157.38;;;16.01;30.81
18396;BME280;76377;45.194;5.734;2024-03-23T13:58:15;99156.97;;;15.92;30.52